createdAt,value
2022-11-30T00:29:33.747Z,1012.25
2022-11-30T00:30:14.290Z,1012.23
2022-11-30T00:30:54.855Z,1012.22
2022-11-30T00:31:35.293Z,1012.21
2022-11-30T00:32:15.757Z,1012.25
2022-11-30T00:32:56.291Z,1012.21
2022-11-30T00:33:36.740Z,1012.23
2022-11-30T00:34:17.249Z,1012.22
2022-11-30T00:34:57.768Z,1012.21
2022-11-30T00:35:38.303Z,1012.19
2022-11-30T00:36:18.812Z,1012.24
2022-11-30T00:36:59.377Z,1012.16
2022-11-30T00:37:39.795Z,1012.14
2022-11-30T00:38:20.300Z,1012.18
2022-11-30T00:39:00.844Z,1012.18
2022-11-30T00:39:41.277Z,1012.15
2022-11-30T00:40:21.813Z,1012.16
2022-11-30T00:41:02.277Z,1012.16
2022-11-30T00:41:42.713Z,1012.19
2022-11-30T00:42:24.917Z,1012.18
2022-11-30T00:43:05.457Z,1012.14
2022-11-30T00:43:45.951Z,1012.15
2022-11-30T00:44:26.417Z,1012.17
2022-11-30T00:45:06.911Z,1012.17
2022-11-30T00:46:28.029Z,1012.18
2022-11-30T00:47:08.429Z,1012.2
2022-11-30T00:47:48.956Z,1012.18
2022-11-30T00:48:29.530Z,1012.19
2022-11-30T00:49:09.976Z,1012.16
2022-11-30T00:49:50.540Z,1012.17
2022-11-30T00:50:30.984Z,1012.19
2022-11-30T00:51:11.558Z,1012.21
2022-11-30T00:51:51.976Z,1012.22
2022-11-30T00:52:32.438Z,1012.22
2022-11-30T00:53:12.944Z,1012.2
2022-11-30T00:53:53.423Z,1012.21
2022-11-30T00:54:33.891Z,1012.19
2022-11-30T00:55:14.400Z,1012.2
2022-11-30T00:56:35.329Z,1012.25
2022-11-30T00:57:15.820Z,1012.22
2022-11-30T00:57:56.381Z,1012.21
2022-11-30T00:58:36.824Z,1012.25
2022-11-30T00:59:17.360Z,1012.29
2022-11-30T00:59:57.865Z,1012.27
2022-11-30T01:00:38.394Z,1012.26
2022-11-30T01:01:18.877Z,1012.28
2022-11-30T01:01:59.314Z,1012.28
2022-11-30T01:02:39.877Z,1012.29
2022-11-30T01:03:20.338Z,1012.27
2022-11-30T01:04:00.912Z,1012.29
2022-11-30T01:04:41.376Z,1012.3
2022-11-30T01:05:21.893Z,1012.26
2022-11-30T01:06:02.363Z,1012.29
2022-11-30T01:06:42.866Z,1012.29
2022-11-30T01:07:23.462Z,1012.33
2022-11-30T01:08:03.968Z,1012.3
2022-11-30T01:08:46.017Z,1012.33
2022-11-30T01:09:26.515Z,1012.31
2022-11-30T01:10:07.026Z,1012.32
2022-11-30T01:10:47.625Z,1012.34
2022-11-30T01:11:28.104Z,1012.32
2022-11-30T01:12:08.579Z,1012.31
2022-11-30T01:12:49.090Z,1012.32
2022-11-30T01:13:29.576Z,1012.31
2022-11-30T01:14:10.150Z,1012.29
2022-11-30T01:14:50.658Z,1012.26
2022-11-30T01:15:31.212Z,1012.24
2022-11-30T01:16:56.177Z,1012.25
2022-11-30T01:17:32.707Z,1012.24
2022-11-30T01:18:13.250Z,1012.25
2022-11-30T01:18:53.733Z,1012.25
2022-11-30T01:19:34.237Z,1012.25
2022-11-30T01:20:14.829Z,1012.32
2022-11-30T01:20:55.319Z,1012.29
2022-11-30T01:21:35.815Z,1012.29
2022-11-30T01:22:16.264Z,1012.31
2022-11-30T01:22:56.813Z,1012.29
2022-11-30T01:23:38.240Z,1012.3
2022-11-30T01:24:18.819Z,1012.3
2022-11-30T01:24:59.246Z,1012.35
2022-11-30T01:25:39.732Z,1012.38
2022-11-30T01:26:20.964Z,1012.33
2022-11-30T01:27:01.543Z,1012.37
2022-11-30T01:27:41.982Z,1012.37
2022-11-30T01:28:22.490Z,1012.32
2022-11-30T01:29:02.987Z,1012.33
2022-11-30T01:29:43.480Z,1012.29
2022-11-30T01:30:23.985Z,1012.29
2022-11-30T01:31:04.567Z,1012.3
2022-11-30T01:31:45.110Z,1012.31
2022-11-30T01:32:25.541Z,1012.29
2022-11-30T01:33:06.005Z,1012.3
2022-11-30T01:33:46.544Z,1012.27
2022-11-30T01:34:27.001Z,1012.29
2022-11-30T01:35:07.547Z,1012.26
2022-11-30T01:35:47.993Z,1012.25
2022-11-30T01:36:28.497Z,1012.27
2022-11-30T01:37:09.018Z,1012.27
2022-11-30T01:37:49.506Z,1012.29
2022-11-30T01:38:29.994Z,1012.29
2022-11-30T01:39:10.498Z,1012.3
2022-11-30T01:39:52.884Z,1012.28
2022-11-30T01:40:33.362Z,1012.29
2022-11-30T01:41:13.885Z,1012.28
2022-11-30T01:41:54.439Z,1012.28
2022-11-30T01:42:34.911Z,1012.29
2022-11-30T01:43:15.419Z,1012.27
2022-11-30T01:44:36.441Z,1012.3
2022-11-30T01:45:17.004Z,1012.31
2022-11-30T01:45:57.677Z,1012.3
2022-11-30T01:46:38.118Z,1012.3
2022-11-30T01:47:18.603Z,1012.29
2022-11-30T01:47:59.070Z,1012.3
2022-11-30T01:48:39.581Z,1012.3
2022-11-30T01:49:20.037Z,1012.29
2022-11-30T01:50:00.525Z,1012.29
2022-11-30T01:50:41.054Z,1012.25
2022-11-30T01:51:21.589Z,1012.27
2022-11-30T01:52:02.103Z,1012.26
2022-11-30T01:52:42.637Z,1012.27
2022-11-30T01:53:23.104Z,1012.26
2022-11-30T01:54:44.259Z,1012.22
2022-11-30T01:55:24.677Z,1012.22
2022-11-30T01:56:05.175Z,1012.24
2022-11-30T01:56:45.651Z,1012.24
2022-11-30T01:57:26.231Z,1012.24
2022-11-30T01:58:06.677Z,1012.24
2022-11-30T01:58:47.262Z,1012.27
2022-11-30T01:59:27.668Z,1012.28
2022-11-30T02:00:08.184Z,1012.27
2022-11-30T02:00:48.660Z,1012.25
2022-11-30T02:01:29.235Z,1012.24
2022-11-30T02:02:09.673Z,1012.26
2022-11-30T02:02:50.240Z,1012.26
2022-11-30T02:03:30.594Z,1012.28
2022-11-30T02:04:11.083Z,1012.28
2022-11-30T02:04:51.644Z,1012.27
2022-11-30T02:05:32.108Z,1012.27
2022-11-30T02:06:12.609Z,1012.26
2022-11-30T02:06:53.165Z,1012.25
2022-11-30T02:07:33.675Z,1012.25
2022-11-30T02:08:14.349Z,1012.24
2022-11-30T02:08:54.678Z,1012.27
2022-11-30T02:09:35.157Z,1012.24
2022-11-30T02:10:15.618Z,1012.27
2022-11-30T02:10:56.103Z,1012.26
2022-11-30T02:11:36.607Z,1012.21
2022-11-30T02:12:17.041Z,1012.23
2022-11-30T02:12:57.532Z,1012.25
2022-11-30T02:13:38.010Z,1012.21
2022-11-30T02:14:18.502Z,1012.19
2022-11-30T02:14:58.960Z,1012.25
2022-11-30T02:15:39.457Z,1012.2
2022-11-30T02:16:20.665Z,1012.21
2022-11-30T02:17:01.164Z,1012.21
2022-11-30T02:17:41.699Z,1012.2
2022-11-30T02:18:22.133Z,1012.18
2022-11-30T02:19:02.640Z,1012.22
2022-11-30T02:19:43.103Z,1012.19
2022-11-30T02:20:23.571Z,1012.21
2022-11-30T02:21:04.104Z,1012.19
2022-11-30T02:21:44.583Z,1012.24
2022-11-30T02:22:25.064Z,1012.21
2022-11-30T02:23:05.556Z,1012.18
2022-11-30T02:23:46.032Z,1012.18
2022-11-30T02:24:27.477Z,1012.26
2022-11-30T02:25:47.493Z,1012.23
2022-11-30T02:26:27.979Z,1012.28
2022-11-30T02:27:08.489Z,1012.26
2022-11-30T02:27:48.985Z,1012.26
2022-11-30T02:28:29.392Z,1012.23
2022-11-30T02:29:09.935Z,1012.27
2022-11-30T02:29:50.409Z,1012.24
2022-11-30T02:30:30.902Z,1012.2
2022-11-30T02:32:23.531Z,1012.23
2022-11-30T02:33:03.997Z,1012.25
2022-11-30T02:33:44.472Z,1012.22
2022-11-30T02:34:24.971Z,1012.22
2022-11-30T02:35:05.421Z,1012.25
2022-11-30T02:35:49.152Z,1012.25
2022-11-30T02:36:26.450Z,1012.24
2022-11-30T02:37:06.894Z,1012.25
2022-11-30T02:37:47.464Z,1012.23
2022-11-30T02:38:27.915Z,1012.25
2022-11-30T02:39:08.394Z,1012.2
2022-11-30T02:39:48.929Z,1012.22
2022-11-30T02:40:29.436Z,1012.2
2022-11-30T02:41:09.901Z,1012.2
2022-11-30T02:41:50.394Z,1012.14
2022-11-30T02:42:30.875Z,1012.21
2022-11-30T02:43:11.349Z,1012.18
2022-11-30T02:43:51.838Z,1012.17
2022-11-30T02:44:32.347Z,1012.15
2022-11-30T02:45:12.790Z,1012.16
2022-11-30T02:45:53.373Z,1012.15
2022-11-30T02:46:33.797Z,1012.11
2022-11-30T02:47:14.279Z,1012.15
2022-11-30T02:47:54.811Z,1012.16
2022-11-30T02:48:35.293Z,1012.15
2022-11-30T02:49:15.780Z,1012.17
2022-11-30T02:49:56.226Z,1012.21
2022-11-30T02:51:17.206Z,1012.17
2022-11-30T02:51:57.660Z,1012.15
2022-11-30T02:52:38.200Z,1012.15
2022-11-30T02:53:18.631Z,1012.24
2022-11-30T02:53:59.114Z,1012.2
2022-11-30T02:54:39.618Z,1012.17
2022-11-30T02:55:20.102Z,1012.15
2022-11-30T02:56:00.563Z,1012.14
2022-11-30T02:56:41.095Z,1012.17
2022-11-30T02:57:21.601Z,1012.18
2022-11-30T02:58:02.072Z,1012.18
2022-11-30T02:58:42.579Z,1012.19
2022-11-30T02:59:23.099Z,1012.19
2022-11-30T03:00:03.572Z,1012.19
2022-11-30T03:01:24.591Z,1012.17
2022-11-30T03:02:05.086Z,1012.2
2022-11-30T03:02:45.619Z,1012.19
2022-11-30T03:03:26.003Z,1012.13
2022-11-30T03:04:06.488Z,1012.14
2022-11-30T03:04:47.184Z,1012.12
2022-11-30T03:05:27.427Z,1012.13
2022-11-30T03:06:07.993Z,1012.18
2022-11-30T03:06:48.475Z,1012.11
2022-11-30T03:07:28.975Z,1012.1
2022-11-30T03:08:49.878Z,1012.12
2022-11-30T03:09:30.383Z,1012.09
2022-11-30T03:10:10.804Z,1012.11
2022-11-30T03:10:51.293Z,1012.1
2022-11-30T03:11:31.787Z,1012.11
2022-11-30T03:12:12.313Z,1012.1
2022-11-30T03:12:52.809Z,1012.1
2022-11-30T03:13:33.312Z,1012.11
2022-11-30T03:14:13.796Z,1012.1
2022-11-30T03:14:54.272Z,1012.14
2022-11-30T03:15:34.827Z,1012.12
2022-11-30T03:16:15.341Z,1012.12
2022-11-30T03:16:55.723Z,1012.13
2022-11-30T03:17:36.204Z,1012.14
2022-11-30T03:18:57.214Z,1012.13
2022-11-30T03:19:37.717Z,1012.14
2022-11-30T03:20:19.011Z,1012.19
2022-11-30T03:20:59.461Z,1012.16
2022-11-30T03:21:39.978Z,1012.15
2022-11-30T03:22:20.489Z,1012.17
2022-11-30T03:25:19.033Z,1012.19
2022-11-30T03:25:59.556Z,1012.2
2022-11-30T03:26:39.982Z,1012.18
2022-11-30T03:27:20.486Z,1012.24
2022-11-30T03:28:00.940Z,1012.22
2022-11-30T03:28:41.412Z,1012.24
2022-11-30T03:29:21.979Z,1012.26
2022-11-30T03:30:02.489Z,1012.26
2022-11-30T03:30:42.996Z,1012.26
2022-11-30T03:31:23.516Z,1012.3
2022-11-30T03:32:03.929Z,1012.25
2022-11-30T03:32:44.444Z,1012.29
2022-11-30T03:33:24.929Z,1012.27
2022-11-30T03:34:05.411Z,1012.26
2022-11-30T03:34:46.176Z,1012.27
2022-11-30T03:37:45.365Z,1012.27
2022-11-30T03:38:26.275Z,1012.3
2022-11-30T03:39:07.366Z,1012.3
2022-11-30T03:39:50.432Z,1012.3
2022-11-30T03:40:29.328Z,1012.29
2022-11-30T03:41:10.333Z,1012.32
2022-11-30T03:41:51.334Z,1012.34
2022-11-30T03:42:32.356Z,1012.36
2022-11-30T03:43:13.319Z,1012.34
2022-11-30T03:43:54.301Z,1012.37
2022-11-30T03:44:35.279Z,1012.35
2022-11-30T03:45:16.299Z,1012.36
2022-11-30T03:45:57.179Z,1012.38
2022-11-30T03:46:38.220Z,1012.4
2022-11-30T03:47:19.149Z,1012.4
2022-11-30T03:48:00.167Z,1012.35
2022-11-30T03:48:41.282Z,1012.39
2022-11-30T03:49:22.274Z,1012.41
2022-11-30T03:50:03.263Z,1012.41
2022-11-30T03:50:44.226Z,1012.44
2022-11-30T03:51:25.212Z,1012.44
2022-11-30T03:52:06.200Z,1012.45
2022-11-30T03:52:47.209Z,1012.46
2022-11-30T03:54:09.196Z,1012.48
2022-11-30T03:54:50.292Z,1012.46
2022-11-30T03:55:31.308Z,1012.49
2022-11-30T03:56:12.302Z,1012.43
2022-11-30T03:56:53.399Z,1012.46
2022-11-30T03:57:34.411Z,1012.44
2022-11-30T03:58:15.428Z,1012.47
2022-11-30T03:58:56.376Z,1012.48
2022-11-30T03:59:37.407Z,1012.44
2022-11-30T04:00:18.523Z,1012.4
2022-11-30T04:01:40.530Z,1012.47
2022-11-30T04:02:21.482Z,1012.45
2022-11-30T04:03:02.527Z,1012.43
2022-11-30T04:03:43.571Z,1012.45
2022-11-30T04:04:24.645Z,1012.43
2022-11-30T04:05:05.590Z,1012.41
2022-11-30T04:05:46.572Z,1012.46
2022-11-30T04:06:27.553Z,1012.42
2022-11-30T04:07:08.551Z,1012.45
2022-11-30T04:07:49.595Z,1012.43
2022-11-30T04:08:30.509Z,1012.44
2022-11-30T04:09:11.521Z,1012.43
2022-11-30T04:09:52.474Z,1012.43
2022-11-30T04:10:33.601Z,1012.45
2022-11-30T04:11:14.615Z,1012.45
2022-11-30T04:11:55.585Z,1012.46
2022-11-30T04:12:36.577Z,1012.44
2022-11-30T04:13:17.715Z,1012.46
2022-11-30T04:13:58.667Z,1012.48
2022-11-30T04:14:39.747Z,1012.45
2022-11-30T04:15:20.844Z,1012.4
2022-11-30T04:16:01.922Z,1012.48
2022-11-30T04:16:42.820Z,1012.45
2022-11-30T04:17:23.789Z,1012.46
2022-11-30T04:18:04.761Z,1012.46
2022-11-30T04:18:45.724Z,1012.43
2022-11-30T04:21:59.612Z,1012.42
2022-11-30T04:22:40.057Z,1012.41
2022-11-30T04:23:20.567Z,1012.4
2022-11-30T04:24:01.040Z,1012.38
2022-11-30T04:24:41.589Z,1012.38
2022-11-30T04:25:22.026Z,1012.38
2022-11-30T04:26:43.032Z,1012.37
2022-11-30T04:27:23.506Z,1012.36
2022-11-30T04:28:04.063Z,1012.32
2022-11-30T04:28:44.535Z,1012.32
2022-11-30T04:29:25.000Z,1012.34
2022-11-30T04:30:05.488Z,1012.33
2022-11-30T04:30:46.041Z,1012.32
2022-11-30T04:31:26.561Z,1012.26
2022-11-30T04:32:06.969Z,1012.28
2022-11-30T04:32:47.488Z,1012.3
2022-11-30T04:33:28.075Z,1012.27
2022-11-30T04:34:08.548Z,1012.33
2022-11-30T04:34:49.404Z,1012.32
2022-11-30T04:35:29.625Z,1012.31
2022-11-30T04:36:50.667Z,1012.33
2022-11-30T04:37:31.097Z,1012.33
2022-11-30T04:38:11.627Z,1012.3
2022-11-30T04:38:52.094Z,1012.27
2022-11-30T04:39:32.602Z,1012.28
2022-11-30T04:40:13.071Z,1012.29
2022-11-30T04:40:53.556Z,1012.33
2022-11-30T04:41:34.015Z,1012.32
2022-11-30T04:42:14.488Z,1012.32
2022-11-30T04:42:54.951Z,1012.27
2022-11-30T04:43:35.407Z,1012.32
2022-11-30T04:44:15.876Z,1012.29
2022-11-30T04:44:56.352Z,1012.3
2022-11-30T04:45:36.857Z,1012.28
2022-11-30T04:46:17.385Z,1012.28
2022-11-30T04:46:57.868Z,1012.29
2022-11-30T04:47:38.343Z,1012.3
2022-11-30T04:48:18.839Z,1012.31
2022-11-30T04:48:59.303Z,1012.29
2022-11-30T04:49:39.797Z,1012.25
2022-11-30T04:50:20.296Z,1012.29
2022-11-30T04:51:00.761Z,1012.3
2022-11-30T04:51:41.244Z,1012.31
2022-11-30T04:52:21.713Z,1012.3
2022-11-30T04:53:02.212Z,1012.3
2022-11-30T04:53:42.684Z,1012.32
2022-11-30T04:54:23.194Z,1012.34
2022-11-30T04:55:03.637Z,1012.33
2022-11-30T04:55:44.131Z,1012.35
2022-11-30T04:56:24.576Z,1012.34
2022-11-30T04:57:05.069Z,1012.33
2022-11-30T04:57:45.549Z,1012.37
2022-11-30T04:58:26.025Z,1012.36
2022-11-30T04:59:06.507Z,1012.36
2022-11-30T04:59:46.996Z,1012.35
2022-11-30T05:00:27.511Z,1012.38
2022-11-30T05:01:08.037Z,1012.35
2022-11-30T05:01:48.554Z,1012.35
2022-11-30T05:02:29.027Z,1012.34
2022-11-30T05:03:09.556Z,1012.37
2022-11-30T05:04:30.598Z,1012.38
2022-11-30T05:05:11.027Z,1012.41
2022-11-30T05:05:51.527Z,1012.39
2022-11-30T05:06:32.052Z,1012.4
2022-11-30T05:07:12.549Z,1012.38
2022-11-30T05:07:53.039Z,1012.36
2022-11-30T05:08:33.505Z,1012.42
2022-11-30T05:11:47.193Z,1012.37
2022-11-30T05:12:27.700Z,1012.38
2022-11-30T05:13:08.128Z,1012.38
2022-11-30T05:13:48.715Z,1012.42
2022-11-30T05:14:29.824Z,1012.39
2022-11-30T05:15:10.297Z,1012.42
2022-11-30T05:15:50.828Z,1012.41
2022-11-30T05:16:31.400Z,1012.42
2022-11-30T05:17:11.858Z,1012.42
2022-11-30T05:17:52.340Z,1012.43
2022-11-30T05:18:32.845Z,1012.4
2022-11-30T05:19:13.306Z,1012.44
2022-11-30T05:19:53.821Z,1012.43
2022-11-30T05:20:34.339Z,1012.44
2022-11-30T05:21:55.305Z,1012.44
2022-11-30T05:22:35.781Z,1012.44
2022-11-30T05:23:16.329Z,1012.4
2022-11-30T05:23:56.835Z,1012.42
2022-11-30T05:24:37.322Z,1012.41
2022-11-30T05:25:17.795Z,1012.45
2022-11-30T05:25:58.292Z,1012.46
2022-11-30T05:26:38.779Z,1012.44
2022-11-30T05:27:22.455Z,1012.42
2022-11-30T05:27:59.882Z,1012.4
2022-11-30T05:28:40.356Z,1012.48
2022-11-30T05:29:20.849Z,1012.46
2022-11-30T05:30:02.175Z,1012.44
2022-11-30T05:30:42.651Z,1012.43
2022-11-30T05:31:23.177Z,1012.47
2022-11-30T05:32:03.598Z,1012.46
2022-11-30T05:32:44.054Z,1012.48
2022-11-30T05:33:24.566Z,1012.47
2022-11-30T05:34:05.035Z,1012.46
2022-11-30T05:34:50.914Z,1012.46
2022-11-30T05:35:26.056Z,1012.49
2022-11-30T05:36:10.626Z,1012.52
2022-11-30T05:36:47.001Z,1012.53
2022-11-30T05:37:27.525Z,1012.51
2022-11-30T05:38:08.042Z,1012.49
2022-11-30T05:39:29.045Z,1012.53
2022-11-30T05:40:09.531Z,1012.51
2022-11-30T05:40:50.041Z,1012.56
2022-11-30T05:41:30.580Z,1012.56
2022-11-30T05:42:11.097Z,1012.55
2022-11-30T05:42:51.621Z,1012.61
2022-11-30T05:43:32.107Z,1012.6
2022-11-30T05:44:12.594Z,1012.63
2022-11-30T05:44:53.103Z,1012.6
2022-11-30T05:45:33.587Z,1012.58
2022-11-30T05:46:54.618Z,1012.62
2022-11-30T05:47:35.117Z,1012.64
2022-11-30T05:48:15.625Z,1012.64
2022-11-30T05:48:56.074Z,1012.63
2022-11-30T05:49:36.539Z,1012.61
2022-11-30T05:50:17.033Z,1012.64
2022-11-30T05:50:57.532Z,1012.64
2022-11-30T05:51:38.080Z,1012.65
2022-11-30T05:52:18.500Z,1012.65
2022-11-30T05:52:58.966Z,1012.66
2022-11-30T05:53:39.442Z,1012.64
2022-11-30T05:54:19.931Z,1012.64
2022-11-30T06:32:19.595Z,1012.77
2022-11-30T06:33:00.177Z,1012.76
2022-11-30T06:33:40.647Z,1012.78
2022-11-30T06:34:21.190Z,1012.74
2022-11-30T06:35:01.647Z,1012.8
2022-11-30T06:35:42.165Z,1012.82
2022-11-30T06:36:22.646Z,1012.81
2022-11-30T06:37:03.070Z,1012.86
2022-11-30T06:37:43.590Z,1012.81
2022-11-30T06:38:24.098Z,1012.84
2022-11-30T06:39:04.586Z,1012.87
2022-11-30T06:40:25.602Z,1012.9
2022-11-30T06:41:06.184Z,1012.87
2022-11-30T06:41:50.127Z,1012.87
2022-11-30T06:42:27.143Z,1012.9
2022-11-30T06:43:07.620Z,1012.87
2022-11-30T06:43:48.084Z,1012.91
2022-11-30T06:44:28.633Z,1012.96
2022-11-30T06:45:09.087Z,1012.93
2022-11-30T06:45:49.686Z,1012.88
2022-11-30T06:46:30.077Z,1012.89
2022-11-30T06:47:10.626Z,1012.92
2022-11-30T06:47:51.163Z,1012.9
2022-11-30T06:48:31.648Z,1012.94
2022-11-30T06:49:12.309Z,1012.93
2022-11-30T06:49:52.741Z,1012.95
2022-11-30T06:50:33.269Z,1012.95
2022-11-30T06:51:13.711Z,1012.96
2022-11-30T06:51:54.274Z,1012.97
2022-11-30T06:52:34.801Z,1012.95
2022-11-30T06:53:15.401Z,1012.97
2022-11-30T06:53:55.808Z,1013
2022-11-30T06:54:36.341Z,1012.99
2022-11-30T06:57:34.997Z,1013.01
2022-11-30T06:58:15.487Z,1013.01
2022-11-30T06:58:55.965Z,1013.06
2022-11-30T06:59:36.718Z,1013.1
2022-11-30T07:00:19.809Z,1013.09
2022-11-30T07:01:00.348Z,1013.05
2022-11-30T07:01:40.939Z,1013.08
2022-11-30T07:02:21.562Z,1013.11
2022-11-30T07:03:02.088Z,1013.13
2022-11-30T07:03:42.636Z,1013.11
2022-11-30T07:04:24.127Z,1013.11
2022-11-30T07:05:04.643Z,1013.09
2022-11-30T07:05:45.211Z,1013.12
2022-11-30T07:06:25.766Z,1013.12
2022-11-30T07:07:06.922Z,1013.09
2022-11-30T07:07:47.471Z,1013.09
2022-11-30T07:08:28.047Z,1013.13
2022-11-30T07:09:09.621Z,1013.1
2022-11-30T07:09:50.165Z,1013.1
2022-11-30T07:10:31.016Z,1013.1
2022-11-30T07:11:11.691Z,1013.13
2022-11-30T07:11:53.211Z,1013.14
2022-11-30T07:12:34.219Z,1013.12
2022-11-30T07:13:15.937Z,1013.14
2022-11-30T07:14:37.823Z,1013.18
2022-11-30T07:15:18.613Z,1013.18
2022-11-30T07:15:59.192Z,1013.17
2022-11-30T07:16:39.892Z,1013.19
2022-11-30T07:17:20.741Z,1013.21
2022-11-30T07:18:02.309Z,1013.19
2022-11-30T07:18:43.033Z,1013.22
2022-11-30T07:19:23.649Z,1013.21
2022-11-30T07:20:04.376Z,1013.23
2022-11-30T07:20:44.935Z,1013.26
2022-11-30T07:21:25.532Z,1013.22
2022-11-30T07:22:06.907Z,1013.26
2022-11-30T07:22:48.436Z,1013.24
2022-11-30T07:23:28.954Z,1013.24
2022-11-30T07:24:10.083Z,1013.25
2022-11-30T07:24:51.134Z,1013.25
2022-11-30T07:25:31.673Z,1013.24
2022-11-30T07:26:12.187Z,1013.24
2022-11-30T07:26:53.426Z,1013.27
2022-11-30T07:27:34.034Z,1013.21
2022-11-30T07:28:15.322Z,1013.26
2022-11-30T07:28:56.265Z,1013.27
2022-11-30T07:29:37.011Z,1013.24
2022-11-30T07:30:17.650Z,1013.3
2022-11-30T07:30:58.179Z,1013.25
2022-11-30T07:32:19.791Z,1013.25
2022-11-30T07:33:00.545Z,1013.28
2022-11-30T07:33:41.394Z,1013.3
2022-11-30T07:34:22.168Z,1013.31
2022-11-30T07:35:02.987Z,1013.28
2022-11-30T07:35:44.114Z,1013.28
2022-11-30T07:36:26.800Z,1013.31
2022-11-30T07:37:07.562Z,1013.32
2022-11-30T07:37:48.183Z,1013.34
2022-11-30T07:38:29.105Z,1013.33
2022-11-30T07:39:09.954Z,1013.35
2022-11-30T07:39:50.561Z,1013.34
2022-11-30T07:40:31.122Z,1013.32
2022-11-30T07:41:11.869Z,1013.35
2022-11-30T07:41:53.385Z,1013.37
2022-11-30T07:42:33.914Z,1013.39
2022-11-30T07:43:14.745Z,1013.37
2022-11-30T07:43:55.411Z,1013.36
2022-11-30T07:47:24.695Z,1013.48
2022-11-30T07:48:07.552Z,1013.43
2022-11-30T07:48:51.379Z,1013.47
2022-11-30T07:49:32.140Z,1013.45
2022-11-30T07:50:12.699Z,1013.46
2022-11-30T07:53:46.776Z,1013.55
2022-11-30T07:54:27.937Z,1013.51
2022-11-30T07:55:08.375Z,1013.56
2022-11-30T07:55:51.595Z,1013.54
2022-11-30T07:56:29.484Z,1013.54
2022-11-30T07:57:09.951Z,1013.61
2022-11-30T07:57:50.482Z,1013.58
2022-11-30T07:58:30.943Z,1013.57
2022-11-30T07:59:11.501Z,1013.56
2022-11-30T07:59:51.953Z,1013.6
2022-11-30T08:00:32.480Z,1013.57
2022-11-30T08:01:13.156Z,1013.59
2022-11-30T08:01:53.692Z,1013.59
2022-11-30T08:02:34.222Z,1013.59
2022-11-30T08:03:14.647Z,1013.6
2022-11-30T08:03:55.177Z,1013.59
2022-11-30T08:04:35.773Z,1013.59
2022-11-30T08:05:16.239Z,1013.57
2022-11-30T08:05:56.767Z,1013.59
2022-11-30T08:06:38.470Z,1013.59
2022-11-30T08:09:53.333Z,1013.51
2022-11-30T08:10:35.465Z,1013.57
2022-11-30T08:11:15.986Z,1013.55
2022-11-30T08:11:56.463Z,1013.55
2022-11-30T08:12:36.952Z,1013.54
2022-11-30T08:13:17.451Z,1013.56
2022-11-30T08:13:57.987Z,1013.53
2022-11-30T08:14:56.864Z,1013.54
2022-11-30T08:15:20.544Z,1013.58
2022-11-30T08:15:59.493Z,1013.57
2022-11-30T08:16:40.047Z,1013.55
2022-11-30T08:17:20.468Z,1013.59
2022-11-30T08:18:00.971Z,1013.59
2022-11-30T08:18:41.531Z,1013.61
2022-11-30T08:20:02.562Z,1013.64
2022-11-30T08:20:47.009Z,1013.62
2022-11-30T08:21:23.578Z,1013.58
2022-11-30T08:22:04.069Z,1013.61
2022-11-30T08:22:44.593Z,1013.57
2022-11-30T08:23:25.082Z,1013.58
2022-11-30T08:24:05.620Z,1013.58
2022-11-30T08:24:46.273Z,1013.58
2022-11-30T08:25:26.603Z,1013.63
2022-11-30T08:26:07.103Z,1013.62
2022-11-30T08:26:47.718Z,1013.61
2022-11-30T08:27:28.166Z,1013.62
2022-11-30T08:28:08.657Z,1013.62
2022-11-30T08:28:49.194Z,1013.62
2022-11-30T08:29:29.699Z,1013.66
2022-11-30T08:30:10.243Z,1013.64
2022-11-30T08:32:47.980Z,1013.71
2022-11-30T08:33:36.908Z,1013.72
2022-11-30T08:34:26.488Z,1013.73
2022-11-30T08:35:14.982Z,1013.75
2022-11-30T08:36:03.807Z,1013.77
2022-11-30T08:36:46.987Z,1013.73
2022-11-30T08:37:24.676Z,1013.72
2022-11-30T08:38:06.326Z,1013.72
2022-11-30T08:40:00.445Z,1013.74
2022-11-30T08:40:40.909Z,1013.77
2022-11-30T08:41:21.506Z,1013.76
2022-11-30T08:42:02.058Z,1013.76
2022-11-30T08:42:42.658Z,1013.76
2022-11-30T08:43:23.304Z,1013.79
2022-11-30T08:44:03.930Z,1013.79
2022-11-30T08:44:44.387Z,1013.77
2022-11-30T08:45:24.975Z,1013.82
2022-11-30T08:46:16.124Z,1013.8
2022-11-30T08:46:53.372Z,1013.81
2022-11-30T08:47:26.528Z,1013.81
2022-11-30T08:48:07.073Z,1013.82
2022-11-30T08:48:48.538Z,1013.82
2022-11-30T08:49:29.244Z,1013.79
2022-11-30T08:50:09.722Z,1013.86
2022-11-30T08:50:50.273Z,1013.9
2022-11-30T08:51:42.298Z,1013.84
2022-11-30T08:52:19.007Z,1013.86
2022-11-30T08:52:51.769Z,1013.87
2022-11-30T08:53:32.326Z,1013.86
2022-11-30T08:54:12.952Z,1013.86
2022-11-30T08:54:53.663Z,1013.88
2022-11-30T08:56:14.540Z,1013.89
2022-11-30T08:56:55.047Z,1013.86
2022-11-30T08:57:35.582Z,1013.9
2022-11-30T08:58:16.121Z,1013.89
2022-11-30T08:58:56.969Z,1013.87
2022-11-30T08:59:37.313Z,1013.89
2022-11-30T09:00:17.786Z,1013.85
2022-11-30T09:00:58.448Z,1013.87
2022-11-30T09:01:39.086Z,1013.86
2022-11-30T09:02:19.996Z,1013.84
2022-11-30T09:03:42.402Z,1013.87
2022-11-30T09:04:23.067Z,1013.88
2022-11-30T09:05:03.607Z,1013.89
2022-11-30T09:05:44.132Z,1013.88
2022-11-30T09:06:24.717Z,1013.89
2022-11-30T09:07:05.265Z,1013.91
2022-11-30T09:07:45.771Z,1013.89
2022-11-30T09:08:26.310Z,1013.92
2022-11-30T09:09:06.792Z,1013.9
2022-11-30T09:09:47.303Z,1013.91
2022-11-30T09:10:27.836Z,1013.9
2022-11-30T09:11:08.608Z,1013.94
2022-11-30T09:11:49.068Z,1013.94
2022-11-30T09:12:29.594Z,1013.94
2022-11-30T09:13:10.150Z,1013.91
2022-11-30T09:13:50.629Z,1013.91
2022-11-30T09:14:31.275Z,1013.92
2022-11-30T09:15:11.706Z,1013.91
2022-11-30T09:15:52.229Z,1013.96
2022-11-30T09:16:32.739Z,1013.93
2022-11-30T09:17:13.284Z,1013.94
2022-11-30T09:17:53.800Z,1013.99
2022-11-30T09:18:35.050Z,1013.99
2022-11-30T09:19:14.978Z,1013.99
2022-11-30T09:19:55.497Z,1013.96
2022-11-30T09:21:16.575Z,1014
2022-11-30T09:21:57.149Z,1013.99
2022-11-30T09:22:37.673Z,1014
2022-11-30T09:23:18.187Z,1014
2022-11-30T09:23:58.705Z,1013.98
2022-11-30T09:24:39.213Z,1013.97
2022-11-30T09:25:19.733Z,1014.02
2022-11-30T09:26:00.280Z,1014
2022-11-30T09:26:40.878Z,1014.03
2022-11-30T09:27:21.329Z,1013.99
2022-11-30T09:28:01.955Z,1013.98
2022-11-30T09:28:42.480Z,1014.02
2022-11-30T09:29:23.076Z,1014
2022-11-30T09:30:03.545Z,1014.05
2022-11-30T09:30:44.186Z,1014.03
2022-11-30T09:31:24.718Z,1014.03
2022-11-30T09:32:05.395Z,1014.07
2022-11-30T09:32:45.979Z,1014.05
2022-11-30T09:34:07.017Z,1014.06
2022-11-30T09:34:49.263Z,1014.04
2022-11-30T09:35:28.151Z,1014.05
2022-11-30T09:36:08.579Z,1014.05
2022-11-30T09:36:49.165Z,1014.06
2022-11-30T09:37:29.708Z,1014.06
2022-11-30T09:38:10.247Z,1014.06
2022-11-30T09:38:50.782Z,1014.04
2022-11-30T09:39:31.355Z,1014.06
2022-11-30T09:40:11.891Z,1014.08
2022-11-30T09:40:52.451Z,1014.05
2022-11-30T09:41:32.926Z,1014.04
2022-11-30T09:42:13.448Z,1014.01
2022-11-30T09:42:54.103Z,1014.08
2022-11-30T09:44:15.155Z,1014.08
2022-11-30T09:44:55.731Z,1014.05
2022-11-30T09:45:36.165Z,1014.06
2022-11-30T09:46:16.733Z,1014.07
2022-11-30T09:46:57.248Z,1014.05
2022-11-30T09:47:37.850Z,1014.05
2022-11-30T09:48:18.232Z,1014.08
2022-11-30T09:48:58.799Z,1014.1
2022-11-30T09:49:39.689Z,1014.09
2022-11-30T09:50:20.293Z,1014.09
2022-11-30T09:51:00.785Z,1014.08
2022-11-30T09:51:41.427Z,1014.02
2022-11-30T09:52:22.324Z,1014.11
2022-11-30T09:53:03.121Z,1014.13
2022-11-30T09:53:43.572Z,1014.06
2022-11-30T09:54:24.684Z,1014.04
2022-11-30T09:55:05.193Z,1014.05
2022-11-30T09:55:45.841Z,1014.06
2022-11-30T09:57:06.889Z,1014.04
2022-11-30T09:57:47.462Z,1014.03
2022-11-30T09:58:27.955Z,1014.03
2022-11-30T09:59:08.481Z,1014.01
2022-11-30T09:59:49.007Z,1014.04
2022-11-30T10:00:29.537Z,1014.03
2022-11-30T10:01:10.156Z,1014.01
2022-11-30T10:01:55.302Z,1014.03
2022-11-30T10:02:31.286Z,1014.04
2022-11-30T10:03:11.829Z,1014.06
2022-11-30T10:03:52.283Z,1014.02